Terminal Aerodrome Forecast
Issued by NWS

Home | Current Version | Previous Version | Text Only | Print | Product List | Glossary Off
Versions: 1 2 3 4 5 6 7 8 9 10 11 12 13 14 15 16 17 18 19 20 21 22 23 24 25 26 27 28 29 30 31

000
FTUS43 KLOT 301938 AAA
TAFORD
TAF AMD
KORD 301938Z 3020/0124 03016G25KT P6SM SCT025 BKN050
      TEMPO 3020/3024 BKN025
     FM010100 01010KT P6SM FEW060
     FM010700 33004KT P6SM SCT250
     FM011500 03007KT P6SM SCT050 SCT250
     FM012100 08005KT P6SM FEW050 SCT250=

USA.gov is the U.S. government's official web portal to all federal, state and local government web resources and services.